Time;durP1;ratioP1;P1;durP2;ratioP2;P2;SDS_P1;SDS_P2;PMS_P1;PMS_P2;Temp;Humidity;BMP_temperature;BMP_pressure;BME280_temperature;BME280_humidity;BME280_pressure;Samples;Min_cycle;Max_cycle;Signal;HPM_P1;HPM_P2
2022/12/06 00:01:28;;;;;;;12.67;6.90;;;8.20;97.70;;;;;;6211298;23;20206;-79
2022/12/06 00:03:59;;;;;;;12.73;7.07;;;8.20;97.70;;;;;;6213793;23;20179;-79
2022/12/06 00:06:29;;;;;;;15.13;7.23;;;8.20;97.70;;;;;;6214098;23;20194;-78
2022/12/06 00:09:00;;;;;;;12.87;7.20;;;8.20;97.80;;;;;;6212597;23;20488;-79
2022/12/06 00:11:30;;;;;;;12.43;7.77;;;8.10;97.80;;;;;;6210315;23;20175;-79
2022/12/06 00:14:01;;;;;;;12.67;6.37;;;8.10;97.80;;;;;;6213056;23;20164;-77
2022/12/06 00:16:31;;;;;;;14.43;7.27;;;8.10;97.80;;;;;;6212949;23;20167;-77
2022/12/06 00:19:00;;;;;;;16.80;7.70;;;8.10;97.90;;;;;;6214301;23;20585;-77
2022/12/06 00:21:31;;;;;;;11.00;7.13;;;8.10;97.90;;;;;;6213441;23;20648;-78
2022/12/06 00:24:02;;;;;;;13.73;7.37;;;8.10;97.90;;;;;;6212181;23;20217;-77
2022/12/06 00:26:31;;;;;;;12.27;6.57;;;8.10;97.90;;;;;;6213584;23;20155;-77
2022/12/06 00:29:00;;;;;;;16.77;7.83;;;8.10;97.80;;;;;;6211852;23;20175;-77
2022/12/06 00:31:31;;;;;;;14.27;7.33;;;8.10;97.80;;;;;;6214116;23;20187;-79
2022/12/06 00:33:59;;;;;;;13.87;7.27;;;8.20;97.80;;;;;;6211900;23;20175;-79
2022/12/06 00:36:30;;;;;;;16.23;7.87;;;8.10;97.80;;;;;;6213487;23;20174;-79
2022/12/06 00:39:00;;;;;;;13.43;7.17;;;8.10;97.70;;;;;;6213738;23;20217;-79
2022/12/06 00:41:28;;;;;;;18.08;8.50;;;8.10;97.80;;;;;;6212462;23;20776;-78
2022/12/06 00:43:57;;;;;;;12.53;6.97;;;8.10;97.80;;;;;;6212510;23;20229;-79
2022/12/06 00:46:27;;;;;;;12.63;6.30;;;8.10;97.90;;;;;;6212725;23;20198;-79
2022/12/06 00:48:58;;;;;;;14.23;7.50;;;8.10;97.90;;;;;;6212387;23;20214;-77
2022/12/06 00:51:28;;;;;;;12.17;6.13;;;8.10;97.90;;;;;;6213377;23;20179;-78
2022/12/06 00:53:57;;;;;;;12.73;6.30;;;8.10;97.80;;;;;;6212312;23;20156;-78
2022/12/06 00:56:27;;;;;;;14.17;7.13;;;8.10;97.80;;;;;;6212969;23;20171;-78
2022/12/06 00:58:55;;;;;;;13.70;7.10;;;8.10;97.90;;;;;;6214411;23;20171;-79
2022/12/06 01:01:26;;;;;;;11.37;6.23;;;8.10;97.90;;;;;;6214500;23;20669;-78
2022/12/06 01:03:58;;;;;;;16.17;6.70;;;8.10;97.80;;;;;;6213207;23;20217;-78
2022/12/06 01:06:30;;;;;;;10.93;6.57;;;8.10;97.80;;;;;;6213561;23;20721;-79
2022/12/06 01:09:00;;;;;;;13.57;7.63;;;8.10;97.80;;;;;;6213093;23;20517;-77
2022/12/06 01:11:29;;;;;;;13.37;6.57;;;8.10;97.90;;;;;;6212221;23;20214;-76
2022/12/06 01:13:58;;;;;;;12.40;6.30;;;8.10;97.80;;;;;;6212612;23;20175;-77
2022/12/06 01:16:29;;;;;;;12.57;7.03;;;8.00;97.90;;;;;;6209642;23;20206;-77
2022/12/06 01:19:01;;;;;;;12.17;6.13;;;8.00;97.90;;;;;;6210666;23;20227;-78
2022/12/06 01:21:30;;;;;;;15.57;6.77;;;8.00;97.90;;;;;;6212519;23;20577;-76
2022/12/06 01:23:58;;;;;;;11.03;6.50;;;8.00;97.80;;;;;;6212039;23;20229;-78
2022/12/06 01:26:28;;;;;;;11.77;6.77;;;8.00;97.80;;;;;;6208833;23;20636;-79
2022/12/06 01:28:58;;;;;;;11.90;6.37;;;7.90;97.90;;;;;;6208818;23;20166;-78
2022/12/06 01:31:27;;;;;;;10.90;6.40;;;8.00;97.90;;;;;;6213608;23;20257;-76
2022/12/06 01:34:06;;;;;;;13.30;6.17;;;8.00;97.80;;;;;;6213156;23;20253;-77
2022/12/06 01:36:34;;;;;;;13.23;7.03;;;7.90;97.90;;;;;;6209111;23;20167;-77
2022/12/06 01:39:05;;;;;;;11.93;5.97;;;7.90;98.00;;;;;;6210378;23;20175;-77
2022/12/06 01:41:34;;;;;;;12.83;5.97;;;7.90;98.00;;;;;;6212597;23;20758;-77
2022/12/06 01:44:02;;;;;;;9.43;5.10;;;7.90;98.00;;;;;;6205214;23;20250;-76
2022/12/06 01:46:33;;;;;;;14.10;6.38;;;7.90;98.00;;;;;;6210119;23;20394;-76
2022/12/06 01:49:09;;;;;;;9.13;5.00;;;7.90;98.10;;;;;;6211273;23;20239;-76
2022/12/06 01:51:40;;;;;;;10.50;4.43;;;8.00;98.10;;;;;;6209394;23;20222;-77
2022/12/06 01:54:11;;;;;;;9.67;5.47;;;8.00;98.10;;;;;;6210586;23;20658;-75
2022/12/06 01:56:40;;;;;;;8.87;4.73;;;8.00;98.00;;;;;;6212334;23;20159;-76
2022/12/06 01:59:09;;;;;;;9.57;5.00;;;8.10;98.00;;;;;;6208486;23;20175;-77
2022/12/06 02:01:39;;;;;;;7.83;4.67;;;8.00;97.90;;;;;;6210135;23;20767;-76
2022/12/06 02:04:09;;;;;;;10.40;4.93;;;8.00;97.90;;;;;;6209847;23;20225;-77
2022/12/06 02:06:39;;;;;;;10.07;4.50;;;8.10;97.90;;;;;;6211242;23;20578;-77
2022/12/06 02:09:10;;;;;;;7.57;4.40;;;8.10;97.80;;;;;;6210605;23;20159;-77
2022/12/06 02:11:38;;;;;;;10.47;5.20;;;8.10;97.80;;;;;;6211257;23;20178;-78
2022/12/06 02:14:11;;;;;;;9.60;4.67;;;8.10;97.80;;;;;;6209393;23;20175;-77
2022/12/06 02:16:54;;;;;;;9.03;4.17;;;8.10;97.70;;;;;;6209469;23;20580;-77
2022/12/06 02:19:51;;;;;;;7.00;4.30;;;8.10;97.70;;;;;;6213456;23;20182;-76
2022/12/06 02:22:27;;;;;;;7.60;4.33;;;8.10;97.60;;;;;;6208281;23;20210;-76
2022/12/06 02:25:17;;;;;;;8.57;5.03;;;8.10;97.60;;;;;;6211486;23;20163;-76
2022/12/06 02:28:15;;;;;;;8.17;4.57;;;8.10;97.70;;;;;;6211079;23;20217;-75
2022/12/06 02:30:49;;;;;;;8.40;3.93;;;8.10;97.80;;;;;;6211315;23;20210;-77
2022/12/06 02:33:25;;;;;;;7.57;4.17;;;8.10;97.70;;;;;;6211344;23;20483;-75
2022/12/06 02:36:02;;;;;;;8.17;4.70;;;8.10;97.70;;;;;;6210048;23;20163;-76
2022/12/06 02:38:35;;;;;;;8.75;4.70;;;8.10;97.70;;;;;;6209333;23;20384;-76
2022/12/06 02:41:11;;;;;;;8.90;4.10;;;8.10;98.00;;;;;;6210559;23;20159;-76
2022/12/06 02:43:45;;;;;;;7.23;4.37;;;8.00;98.00;;;;;;6210154;23;20172;-76
2022/12/06 02:46:19;;;;;;;6.40;3.80;;;8.00;97.90;;;;;;6213076;23;20163;-76
2022/12/06 02:48:48;;;;;;;9.20;4.53;;;8.00;97.80;;;;;;6211098;23;20557;-76
2022/12/06 02:51:18;;;;;;;13.75;6.30;;;8.00;97.80;;;;;;6210960;23;20383;-77
2022/12/06 02:53:51;;;;;;;8.50;4.37;;;8.00;98.00;;;;;;6210727;23;20174;-76
2022/12/06 02:56:19;;;;;;;9.03;4.17;;;8.10;98.10;;;;;;6212484;23;20592;-77
2022/12/06 02:58:48;;;;;;;6.33;3.87;;;8.10;97.90;;;;;;6211284;23;20174;-75
2022/12/06 03:01:20;;;;;;;7.73;4.10;;;8.10;97.80;;;;;;6212191;23;20175;-76
2022/12/06 03:04:07;;;;;;;10.47;5.00;;;8.20;97.80;;;;;;6210836;23;20473;-78
2022/12/06 03:06:58;;;;;;;7.30;4.03;;;8.20;97.90;;;;;;6212566;23;20207;-75
2022/12/06 03:09:39;;;;;;;5.53;3.10;;;8.20;97.90;;;;;;6211449;23;20159;-77
2022/12/06 03:12:17;;;;;;;6.37;3.73;;;8.30;97.80;;;;;;6210571;23;20183;-76
2022/12/06 03:14:53;;;;;;;6.50;3.70;;;8.30;97.70;;;;;;6211756;23;20167;-76
2022/12/06 03:17:32;;;;;;;6.70;3.93;;;8.30;97.70;;;;;;6208343;23;20160;-78
2022/12/06 03:20:04;;;;;;;8.10;4.23;;;8.30;97.60;;;;;;6210206;23;20202;-76
2022/12/06 03:22:37;;;;;;;8.63;4.33;;;8.30;97.60;;;;;;6211105;23;20190;-78
2022/12/06 03:25:09;;;;;;;8.50;4.47;;;8.40;97.60;;;;;;6210323;23;20164;-77
2022/12/06 03:27:39;;;;;;;7.37;3.93;;;8.40;97.50;;;;;;6211488;23;20163;-76
2022/12/06 03:30:11;;;;;;;7.03;3.43;;;8.40;97.50;;;;;;6211332;23;20159;-77
2022/12/06 03:32:44;;;;;;;9.37;4.33;;;8.40;97.40;;;;;;6212602;23;20179;-77
2022/12/06 03:35:17;;;;;;;8.33;4.17;;;8.50;97.40;;;;;;6210216;23;20152;-77
2022/12/06 03:37:49;;;;;;;8.83;5.03;;;8.50;97.50;;;;;;6212865;23;20163;-77
2022/12/06 03:40:22;;;;;;;7.30;4.10;;;8.40;97.40;;;;;;6210172;23;20163;-77
2022/12/06 03:42:51;;;;;;;6.73;4.00;;;8.40;97.40;;;;;;6214467;23;20213;-76
2022/12/06 03:45:22;;;;;;;7.77;4.27;;;8.50;97.40;;;;;;6213105;23;20179;-78
2022/12/06 03:47:58;;;;;;;7.33;3.73;;;8.40;97.30;;;;;;6209889;23;20165;-77
2022/12/06 03:50:32;;;;;;;6.70;4.23;;;8.40;97.30;;;;;;6215007;23;20193;-77
2022/12/06 03:53:01;;;;;;;7.60;4.70;;;8.40;97.30;;;;;;6212169;23;20175;-78
2022/12/06 03:55:30;;;;;;;8.33;4.50;;;8.40;97.40;;;;;;6211016;23;20221;-78
2022/12/06 03:57:58;;;;;;;8.07;4.40;;;8.40;97.30;;;;;;6209729;23;20175;-77
2022/12/06 04:00:26;;;;;;;8.60;4.50;;;8.40;97.40;;;;;;6211080;23;20229;-77
2022/12/06 04:02:56;;;;;;;9.17;4.83;;;8.40;97.40;;;;;;6212284;23;20171;-78
2022/12/06 04:05:24;;;;;;;8.53;4.50;;;8.30;97.40;;;;;;6214546;23;20175;-77
2022/12/06 04:07:52;;;;;;;7.13;4.13;;;8.30;97.40;;;;;;6210634;23;20394;-78
2022/12/06 04:10:21;;;;;;;9.43;4.57;;;8.30;97.40;;;;;;6209892;23;20171;-78
2022/12/06 04:13:04;;;;;;;7.97;4.90;;;8.20;97.50;;;;;;6209648;23;20222;-77
2022/12/06 04:15:34;;;;;;;10.07;4.17;;;8.20;97.40;;;;;;6214563;23;20178;-78
2022/12/06 04:18:12;;;;;;;8.33;4.70;;;8.20;97.60;;;;;;6211097;23;20191;-78
2022/12/06 04:23:52;;;;;;;9.13;4.63;;;8.30;97.60;;;;;;6120624;23;20220;-78
2022/12/06 04:26:22;;;;;;;8.07;4.53;;;8.20;97.70;;;;;;6190023;23;20175;-78
2022/12/06 04:39:58;;;;;;;10.83;5.70;;;8.30;97.70;;;;;;6211246;23;20171;-78
2022/12/06 04:45:13;;;;;;;8.63;4.93;;;8.20;97.70;;;;;;6210721;23;20167;-77
2022/12/06 04:47:41;;;;;;;9.57;4.60;;;8.20;97.70;;;;;;6210603;23;20186;-76
2022/12/06 04:50:11;;;;;;;8.90;3.57;;;8.30;97.70;;;;;;6212947;23;20207;-77
2022/12/06 04:52:39;;;;;;;9.37;4.70;;;8.30;97.70;;;;;;6211130;23;20237;-77
2022/12/06 04:55:08;;;;;;;12.60;3.97;;;8.30;97.60;;;;;;6212514;23;20194;-77
2022/12/06 04:57:36;;;;;;;9.33;3.73;;;8.30;97.60;;;;;;6213200;23;20179;-77
2022/12/06 05:00:06;;;;;;;9.10;4.73;;;8.30;97.60;;;;;;6210645;23;20274;-78
2022/12/06 05:02:35;;;;;;;7.63;4.07;;;8.40;97.60;;;;;;6185748;23;20175;-78
2022/12/06 05:05:03;;;;;;;7.50;3.87;;;8.40;97.60;;;;;;6213237;23;20624;-78
2022/12/06 05:07:33;;;;;;;5.53;3.37;;;8.40;97.60;;;;;;6210545;23;20648;-77
2022/12/06 05:10:01;;;;;;;8.70;3.70;;;8.40;97.60;;;;;;6212644;23;20175;-78
2022/12/06 05:12:30;;;;;;;7.97;3.70;;;8.40;97.60;;;;;;6210619;23;20211;-77
2022/12/06 05:14:58;;;;;;;6.70;3.67;;;8.50;97.60;;;;;;6210931;23;20175;-77
2022/12/06 05:17:26;;;;;;;7.73;3.30;;;8.50;97.50;;;;;;6212122;23;20702;-77
2022/12/06 05:19:55;;;;;;;7.93;3.90;;;8.50;97.50;;;;;;6211888;23;20171;-77
2022/12/06 05:22:23;;;;;;;6.90;3.63;;;8.60;97.50;;;;;;6210590;23;20915;-76
2022/12/06 05:24:52;;;;;;;11.40;4.80;;;8.60;97.50;;;;;;6210158;23;20662;-78
2022/12/06 05:27:21;;;;;;;10.60;3.77;;;8.60;97.50;;;;;;6211125;23;20171;-77
2022/12/06 05:29:49;;;;;;;10.13;5.10;;;8.60;97.50;;;;;;6210129;23;20222;-76
2022/12/06 05:32:17;;;;;;;9.70;4.80;;;8.60;97.50;;;;;;6211387;23;20223;-77
2022/12/06 05:34:46;;;;;;;8.20;4.57;;;8.60;97.50;;;;;;6209657;23;20195;-76
2022/12/06 05:37:14;;;;;;;10.30;4.33;;;8.60;97.50;;;;;;6211559;23;20636;-77
2022/12/06 05:39:42;;;;;;;8.83;4.43;;;8.70;97.50;;;;;;6214047;23;20179;-76
2022/12/06 05:42:12;;;;;;;10.27;4.60;;;8.60;97.50;;;;;;6210679;23;20182;-77
2022/12/06 05:44:49;;;;;;;10.40;5.10;;;8.70;97.50;;;;;;6211605;23;20155;-77
2022/12/06 05:47:17;;;;;;;11.50;4.37;;;8.70;97.40;;;;;;6211497;23;20647;-77
2022/12/06 05:49:45;;;;;;;9.83;4.40;;;8.70;97.40;;;;;;6210993;23;20206;-77
2022/12/06 05:52:14;;;;;;;11.33;5.13;;;8.70;97.40;;;;;;6210096;23;20182;-78
2022/12/06 05:54:42;;;;;;;10.13;5.10;;;8.70;97.40;;;;;;6209993;23;20253;-77
2022/12/06 05:57:12;;;;;;;9.17;4.87;;;8.70;97.40;;;;;;6211415;23;20383;-77
2022/12/06 05:59:40;;;;;;;11.90;5.27;;;8.60;97.40;;;;;;6204885;23;20443;-76
2022/12/06 06:02:09;;;;;;;9.33;4.60;;;8.60;97.40;;;;;;6211818;23;20179;-76
2022/12/06 06:04:37;;;;;;;9.87;4.50;;;8.60;97.40;;;;;;6211435;23;20175;-77
2022/12/06 06:07:05;;;;;;;10.90;5.63;;;8.60;97.40;;;;;;6210701;23;20245;-76
2022/12/06 06:09:34;;;;;;;7.70;4.00;;;8.70;97.50;;;;;;6210866;23;20489;-76
2022/12/06 06:12:02;;;;;;;12.40;4.67;;;8.60;97.40;;;;;;6211220;23;20229;-77
2022/12/06 06:14:38;;;;;;;13.97;4.97;;;8.70;97.40;;;;;;6209708;23;20647;-76
2022/12/06 06:17:06;;;;;;;13.43;5.43;;;8.70;97.40;;;;;;6209842;23;20175;-76
2022/12/06 06:19:34;;;;;;;11.43;4.53;;;8.70;97.40;;;;;;6211430;23;20186;-75
2022/12/06 06:22:03;;;;;;;10.00;5.17;;;8.70;97.50;;;;;;6210303;23;20179;-76
2022/12/06 06:24:35;;;;;;;13.67;4.60;;;8.70;97.40;;;;;;6212043;23;20225;-78
2022/12/06 06:27:04;;;;;;;10.53;5.70;;;8.70;97.40;;;;;;6208119;23;20411;-77
2022/12/06 06:29:32;;;;;;;8.97;4.33;;;8.70;97.60;;;;;;6211068;23;20199;-77
2022/12/06 06:32:02;;;;;;;14.63;6.13;;;8.70;97.60;;;;;;6211347;23;20179;-76
2022/12/06 06:34:31;;;;;;;10.67;5.40;;;8.70;97.60;;;;;;6214379;23;20190;-76
2022/12/06 06:36:59;;;;;;;9.30;4.90;;;8.70;97.50;;;;;;6213668;23;20186;-76
2022/12/06 06:39:27;;;;;;;12.13;6.00;;;8.60;97.40;;;;;;6211571;23;20384;-76
2022/12/06 06:41:55;;;;;;;14.03;5.30;;;8.70;97.80;;;;;;6210905;23;20202;-75
2022/12/06 06:44:24;;;;;;;10.77;5.50;;;8.70;97.70;;;;;;6210008;23;20179;-76
2022/12/06 06:46:52;;;;;;;12.43;6.00;;;8.70;97.70;;;;;;6211890;23;20175;-77
2022/12/06 06:49:21;;;;;;;9.77;5.20;;;8.70;97.60;;;;;;6212806;23;20197;-77
2022/12/06 06:51:50;;;;;;;9.83;4.87;;;8.70;97.60;;;;;;6211227;23;20198;-76
2022/12/06 06:54:18;;;;;;;12.80;5.47;;;8.70;97.50;;;;;;6212032;23;20326;-75
2022/12/06 06:56:46;;;;;;;10.37;4.40;;;8.70;97.50;;;;;;6213168;23;20233;-75
2022/12/06 06:59:15;;;;;;;9.67;5.27;;;8.70;97.50;;;;;;6212449;23;20675;-75
2022/12/06 07:01:43;;;;;;;9.80;5.30;;;8.80;97.50;;;;;;6208509;23;20652;-76
2022/12/06 07:04:12;;;;;;;10.53;5.07;;;8.80;97.50;;;;;;6208593;23;20167;-74
2022/12/06 07:06:42;;;;;;;12.53;5.63;;;8.80;97.50;;;;;;6211523;23;20659;-74
2022/12/06 07:09:10;;;;;;;11.00;5.03;;;8.80;97.40;;;;;;6213848;23;20553;-74
2022/12/06 07:11:39;;;;;;;13.60;5.63;;;8.80;97.40;;;;;;6212868;23;20179;-74
2022/12/06 07:14:07;;;;;;;11.73;4.73;;;8.90;97.50;;;;;;6213773;23;20194;-76
2022/12/06 07:16:35;;;;;;;12.97;5.30;;;8.90;97.40;;;;;;6207373;23;20520;-75
2022/12/06 07:19:04;;;;;;;10.77;5.73;;;8.90;97.40;;;;;;6210846;23;20508;-78
2022/12/06 07:21:36;;;;;;;9.70;5.30;;;8.90;97.40;;;;;;6214093;23;20159;-76
2022/12/06 07:24:06;;;;;;;11.57;5.03;;;8.90;97.30;;;;;;6214971;23;20171;-76
2022/12/06 07:26:35;;;;;;;10.10;5.03;;;8.90;97.30;;;;;;6210368;23;20254;-75
2022/12/06 07:29:03;;;;;;;13.50;5.30;;;9.00;97.30;;;;;;6204554;23;20504;-76
2022/12/06 07:31:32;;;;;;;13.27;6.23;;;9.00;97.30;;;;;;6210870;23;20175;-75
2022/12/06 07:34:02;;;;;;;12.43;5.33;;;9.00;97.30;;;;;;6212258;23;20205;-76
2022/12/06 07:36:32;;;;;;;12.50;5.43;;;9.00;97.20;;;;;;6212952;23;20225;-78
2022/12/06 07:39:01;;;;;;;9.60;4.83;;;8.90;97.10;;;;;;6210910;23;20550;-75
2022/12/06 07:47:03;;;;;;;18.60;6.90;;;8.90;97.30;;;;;;6214054;23;20233;-76
2022/12/06 07:49:32;;;;;;;12.27;5.83;;;8.90;97.30;;;;;;6212136;23;20171;-76
2022/12/06 07:52:01;;;;;;;11.77;6.70;;;8.90;97.30;;;;;;6214136;23;20698;-75
2022/12/06 07:54:29;;;;;;;15.80;7.83;;;8.90;97.30;;;;;;6214395;23;20191;-76
2022/12/06 07:56:59;;;;;;;12.43;6.77;;;8.90;97.30;;;;;;6214120;23;20175;-76
2022/12/06 07:59:27;;;;;;;14.63;6.53;;;9.00;97.40;;;;;;6212711;23;20650;-76
2022/12/06 08:01:55;;;;;;;17.70;7.37;;;9.00;97.80;;;;;;6216462;23;20182;-76
2022/12/06 08:04:24;;;;;;;26.03;7.23;;;9.00;97.40;;;;;;6214104;23;20199;-76
2022/12/06 08:06:53;;;;;;;21.50;6.83;;;9.10;97.50;;;;;;6214268;23;20206;-75
2022/12/06 08:09:21;;;;;;;20.13;7.30;;;9.10;97.40;;;;;;6215473;23;20182;-75
2022/12/06 08:11:49;;;;;;;21.20;7.43;;;9.10;97.40;;;;;;6214468;23;20175;-75
2022/12/06 08:14:19;;;;;;;21.73;7.40;;;9.10;97.40;;;;;;6214627;23;20226;-76
2022/12/06 08:16:47;;;;;;;16.77;6.63;;;9.10;97.40;;;;;;6212720;23;20628;-76
2022/12/06 08:19:15;;;;;;;16.53;7.20;;;9.20;97.40;;;;;;6210551;23;20697;-76
2022/12/06 08:21:44;;;;;;;14.43;6.97;;;9.10;97.30;;;;;;6210976;23;20175;-75
2022/12/06 08:24:12;;;;;;;17.23;8.00;;;9.20;97.30;;;;;;6208245;23;20171;-75
2022/12/06 08:26:40;;;;;;;19.80;7.97;;;9.20;97.30;;;;;;6212737;23;20179;-76
2022/12/06 08:29:09;;;;;;;18.30;8.07;;;9.20;97.30;;;;;;6212193;23;20175;-75
2022/12/06 08:31:38;;;;;;;15.30;7.13;;;9.20;97.30;;;;;;6213201;23;20182;-74
2022/12/06 08:34:07;;;;;;;19.93;7.23;;;9.20;97.30;;;;;;6211937;23;20687;-76
2022/12/06 08:36:38;;;;;;;17.27;8.38;;;9.20;97.30;;;;;;6213346;23;20446;-75
2022/12/06 08:39:09;;;;;;;16.73;7.33;;;9.20;97.40;;;;;;6212978;23;20164;-76
2022/12/06 08:41:57;;;;;;;14.03;6.40;;;9.30;97.40;;;;;;6212091;23;20229;-78
2022/12/06 08:44:27;;;;;;;13.13;6.67;;;9.30;97.40;;;;;;6214165;23;20194;-76
2022/12/06 08:46:58;;;;;;;13.47;6.93;;;9.30;97.30;;;;;;6214742;23;20637;-76
2022/12/06 08:49:28;;;;;;;20.07;8.10;;;9.30;97.30;;;;;;6213423;23;20209;-77
2022/12/06 08:51:57;;;;;;;20.93;10.27;;;9.30;97.20;;;;;;6212132;23;20229;-77
2022/12/06 08:54:26;;;;;;;13.47;7.57;;;9.30;97.20;;;;;;6212980;23;20801;-77
2022/12/06 08:56:54;;;;;;;16.87;7.30;;;9.30;97.20;;;;;;6212771;23;20501;-76
2022/12/06 08:59:23;;;;;;;16.10;7.40;;;9.20;97.20;;;;;;6214344;23;20628;-77
2022/12/06 09:01:52;;;;;;;19.27;7.80;;;9.30;97.20;;;;;;6214970;23;20229;-77
2022/12/06 09:04:22;;;;;;;17.20;7.23;;;9.30;97.20;;;;;;6215205;23;20175;-77
2022/12/06 09:06:51;;;;;;;14.27;7.83;;;9.30;97.20;;;;;;6210945;23;20234;-78
2022/12/06 09:09:19;;;;;;;18.20;8.07;;;9.30;97.20;;;;;;6208722;23;20170;-76
2022/12/06 09:11:49;;;;;;;19.53;8.67;;;9.30;97.30;;;;;;6211270;23;20692;-78
2022/12/06 09:14:19;;;;;;;16.27;8.57;;;9.30;97.20;;;;;;6214016;23;20468;-78
2022/12/06 09:16:50;;;;;;;18.83;7.50;;;9.30;97.20;;;;;;6207186;23;20166;-78
2022/12/06 09:19:19;;;;;;;14.43;7.97;;;9.30;97.20;;;;;;6212259;23;20178;-78
2022/12/06 09:21:49;;;;;;;17.70;8.37;;;9.30;97.30;;;;;;6214601;23;20171;-76
2022/12/06 09:24:18;;;;;;;17.77;8.07;;;9.30;97.30;;;;;;6213724;23;20561;-77
2022/12/06 09:26:47;;;;;;;21.67;8.33;;;9.30;97.30;;;;;;6210670;23;20657;-78
2022/12/06 09:29:17;;;;;;;18.00;9.13;;;9.30;97.30;;;;;;6209886;23;20175;-77
2022/12/06 09:31:46;;;;;;;20.90;8.17;;;9.20;97.40;;;;;;6212439;23;20229;-77
2022/12/06 09:34:15;;;;;;;19.07;8.30;;;9.30;97.40;;;;;;6209874;23;20199;-78
2022/12/06 09:36:48;;;;;;;23.40;8.33;;;9.30;97.40;;;;;;6209503;23;20242;-78
2022/12/06 09:39:21;;;;;;;15.57;7.33;;;9.30;97.40;;;;;;6210345;23;20278;-77
2022/12/06 09:42:40;;;;;;;21.93;7.87;;;9.30;97.40;;;;;;6207545;23;20163;-76
2022/12/06 09:45:22;;;;;;;20.50;7.83;;;9.20;97.40;;;;;;6117030;23;20177;-77
2022/12/06 09:48:09;;;;;;;19.43;8.67;;;9.30;97.40;;;;;;6118574;23;20161;-79
2022/12/06 09:50:45;;;;;;;22.27;8.77;;;9.30;97.40;;;;;;6195266;23;20175;-79
2022/12/06 09:53:21;;;;;;;17.97;8.30;;;9.30;97.40;;;;;;6212689;23;20172;-79
2022/12/06 09:56:06;;;;;;;17.33;8.20;;;9.30;97.40;;;;;;6210274;23;20175;-76
2022/12/06 09:58:49;;;;;;;18.93;8.80;;;9.30;97.50;;;;;;6211559;23;20160;-77
2022/12/06 10:01:38;;;;;;;19.93;9.13;;;9.30;97.40;;;;;;6208812;23;20186;-77
2022/12/06 10:04:26;;;;;;;22.17;8.07;;;9.40;97.40;;;;;;6208375;23;20163;-78
2022/12/06 10:07:03;;;;;;;20.60;8.57;;;9.30;97.40;;;;;;6208502;23;20751;-78
2022/12/06 10:09:43;;;;;;;26.35;10.30;;;9.40;97.40;;;;;;6208390;23;20388;-78
2022/12/06 10:12:27;;;;;;;16.87;8.50;;;9.40;97.80;;;;;;6209342;23;20600;-79
2022/12/06 10:15:15;;;;;;;23.47;9.27;;;9.40;97.80;;;;;;6211845;23;20167;-78
2022/12/06 10:17:58;;;;;;;22.63;9.07;;;9.40;97.70;;;;;;6208479;23;20608;-78
2022/12/06 10:20:33;;;;;;;19.97;8.83;;;9.50;97.70;;;;;;6211357;23;20163;-77
2022/12/06 10:23:13;;;;;;;24.80;10.07;;;9.50;97.60;;;;;;6209613;23;20619;-78
2022/12/06 10:25:47;;;;;;;25.73;9.93;;;9.50;97.60;;;;;;6205263;23;20500;-78
2022/12/06 10:28:26;;;;;;;20.43;9.03;;;9.50;97.60;;;;;;6209650;23;20217;-77
2022/12/06 10:30:58;;;;;;;26.63;10.57;;;9.60;97.60;;;;;;6210186;23;20159;-78
2022/12/06 10:33:35;;;;;;;25.50;10.10;;;9.60;97.60;;;;;;6211707;23;20387;-78
2022/12/06 10:36:07;;;;;;;20.70;9.10;;;9.60;97.60;;;;;;6209093;23;20657;-78
2022/12/06 10:38:41;;;;;;;23.97;9.63;;;9.60;97.60;;;;;;6210509;23;20159;-78
2022/12/06 10:41:18;;;;;;;20.37;9.27;;;9.60;97.60;;;;;;6208075;23;20183;-76
2022/12/06 10:43:54;;;;;;;21.27;9.90;;;9.70;97.60;;;;;;6207870;23;20182;-77
2022/12/06 10:49:23;;;;;;;27.33;10.50;;;9.70;97.40;;;;;;6211800;23;20210;-75
2022/12/06 10:51:58;;;;;;;21.73;8.83;;;9.80;97.40;;;;;;6211004;23;20159;-78
2022/12/06 10:54:33;;;;;;;22.63;10.70;;;9.80;97.40;;;;;;6211247;23;20159;-76
2022/12/06 10:57:05;;;;;;;27.13;11.37;;;9.80;97.30;;;;;;6207415;23;20228;-77
2022/12/06 10:59:40;;;;;;;25.02;11.73;;;9.80;97.30;;;;;;6210619;23;20422;-76
2022/12/06 11:02:23;;;;;;;22.87;10.57;;;9.80;97.40;;;;;;6205983;23;20224;-76
2022/12/06 11:04:53;;;;;;;21.73;10.07;;;9.80;97.40;;;;;;6206973;23;20167;-77
2022/12/06 11:07:25;;;;;;;21.60;10.80;;;9.80;97.30;;;;;;6207246;23;20253;-76
2022/12/06 11:09:56;;;;;;;19.53;10.03;;;9.80;97.10;;;;;;6210032;23;20171;-76
2022/12/06 11:12:32;;;;;;;21.23;10.50;;;9.80;97.10;;;;;;6204855;23;20502;-76
2022/12/06 11:15:12;;;;;;;17.77;9.07;;;9.80;97.30;;;;;;6211649;23;20438;-77
2022/12/06 11:17:46;;;;;;;21.87;9.03;;;9.80;97.30;;;;;;6209375;23;20179;-75
2022/12/06 11:20:21;;;;;;;24.03;9.40;;;9.80;97.20;;;;;;6211321;23;20159;-76
2022/12/06 11:23:04;;;;;;;17.17;8.10;;;9.80;97.10;;;;;;6212400;23;20163;-78
2022/12/06 11:25:51;;;;;;;24.63;10.13;;;9.90;97.10;;;;;;6211727;23;20530;-77
2022/12/06 11:28:33;;;;;;;17.37;8.60;;;9.90;97.10;;;;;;6210720;23;20182;-75
2022/12/06 11:31:11;;;;;;;22.50;8.77;;;9.90;97.00;;;;;;6214500;23;20159;-76
2022/12/06 11:33:39;;;;;;;25.23;9.77;;;9.90;97.00;;;;;;6213280;23;20160;-76
2022/12/06 11:36:09;;;;;;;21.10;9.40;;;9.90;96.90;;;;;;6211425;23;20191;-77
2022/12/06 11:38:41;;;;;;;24.67;11.13;;;10.00;96.80;;;;;;6212941;23;20221;-76
2022/12/06 11:41:17;;;;;;;25.97;9.97;;;10.00;96.90;;;;;;6208212;23;20608;-78
2022/12/06 11:43:46;;;;;;;21.53;10.57;;;9.90;96.70;;;;;;6213022;23;20170;-75
2022/12/06 11:46:16;;;;;;;20.90;8.43;;;9.90;96.70;;;;;;6214003;23;20259;-76
2022/12/06 11:48:44;;;;;;;21.60;9.90;;;9.90;96.70;;;;;;6213283;23;20167;-76
2022/12/06 11:51:17;;;;;;;21.60;9.60;;;9.90;96.70;;;;;;6211603;23;20182;-77
2022/12/06 11:53:57;;;;;;;20.30;9.60;;;9.90;96.80;;;;;;6212881;23;20614;-77
2022/12/06 11:56:28;;;;;;;24.03;9.97;;;9.90;96.80;;;;;;6213471;23;20176;-77
2022/12/06 11:59:07;;;;;;;28.37;10.27;;;9.90;96.80;;;;;;6213954;23;20460;-78
2022/12/06 12:01:43;;;;;;;25.80;10.20;;;9.90;96.80;;;;;;6213437;23;20159;-77
2022/12/06 12:04:38;;;;;;;19.00;9.67;;;9.90;96.80;;;;;;6215957;23;20483;-77
2022/12/06 12:07:15;;;;;;;21.03;9.80;;;9.90;96.80;;;;;;6214912;23;20195;-77
2022/12/06 12:09:56;;;;;;;20.17;8.87;;;9.90;96.80;;;;;;6212310;23;20163;-78
2022/12/06 12:13:42;;;;;;;26.40;9.97;;;9.90;96.80;;;;;;6212537;23;20160;-77
2022/12/06 12:15:18;;;;;;;22.80;10.75;;;9.90;96.80;;;;;;6208318;23;20437;-77
2022/12/06 12:18:01;;;;;;;17.27;9.07;;;9.90;96.80;;;;;;6207642;23;20655;-79
2022/12/06 12:20:36;;;;;;;21.07;9.47;;;9.90;96.80;;;;;;6211001;23;20163;-79
2022/12/06 12:23:06;;;;;;;19.20;9.30;;;9.90;96.80;;;;;;6209892;23;20139;-77
2022/12/06 12:25:41;;;;;;;18.33;8.63;;;9.90;96.70;;;;;;6211202;23;20166;-78
2022/12/06 12:28:29;;;;;;;19.73;8.83;;;9.90;96.80;;;;;;6212312;23;20156;-79
2022/12/06 12:31:02;;;;;;;20.07;9.50;;;9.90;96.70;;;;;;6156311;23;20179;-79
2022/12/06 12:33:34;;;;;;;21.50;9.37;;;9.90;96.60;;;;;;6210218;23;20186;-77
2022/12/06 12:36:20;;;;;;;21.97;10.13;;;9.90;96.70;;;;;;6211709;23;20330;-78
2022/12/06 12:38:56;;;;;;;20.23;9.77;;;9.80;96.60;;;;;;6212870;23;20155;-78
2022/12/06 12:41:31;;;;;;;23.60;11.07;;;9.80;96.60;;;;;;6210682;23;20160;-79
2022/12/06 12:44:03;;;;;;;24.07;11.60;;;9.90;96.80;;;;;;6212689;23;20549;-78
2022/12/06 12:46:56;;;;;;;22.60;10.40;;;9.80;96.80;;;;;;6211540;23;20167;-78
2022/12/06 12:49:29;;;;;;;26.47;11.13;;;9.80;96.80;;;;;;6214437;23;20159;-78
2022/12/06 12:51:58;;;;;;;23.47;10.70;;;9.80;96.80;;;;;;6212624;23;20580;-77
2022/12/06 12:54:30;;;;;;;21.77;11.53;;;9.80;96.80;;;;;;6213417;23;20257;-77
2022/12/06 12:56:59;;;;;;;23.00;10.23;;;9.70;96.90;;;;;;6212537;23;20343;-77
2022/12/06 12:59:32;;;;;;;20.83;9.27;;;9.70;97.10;;;;;;6213477;23;20179;-77
2022/12/06 13:02:05;;;;;;;20.23;10.53;;;9.80;97.10;;;;;;6212484;23;20160;-77
2022/12/06 13:04:43;;;;;;;20.97;9.77;;;9.70;97.10;;;;;;6214165;23;20611;-76
2022/12/06 13:07:18;;;;;;;24.03;10.60;;;9.70;97.10;;;;;;6213566;23;20571;-77
2022/12/06 13:09:53;;;;;;;25.13;9.77;;;9.70;97.10;;;;;;6213981;23;20584;-78
2022/12/06 13:12:29;;;;;;;24.90;10.50;;;9.70;97.20;;;;;;6212643;23;20159;-78
2022/12/06 13:15:02;;;;;;;23.27;10.87;;;9.70;97.20;;;;;;6212829;23;20156;-78
2022/12/06 13:17:34;;;;;;;20.43;9.90;;;9.70;97.20;;;;;;6214283;23;20202;-78
2022/12/06 13:20:04;;;;;;;27.02;11.52;;;9.70;97.30;;;;;;6212694;23;20450;-77
2022/12/06 13:22:43;;;;;;;18.73;9.07;;;9.70;97.60;;;;;;6213174;23;20182;-76
2022/12/06 13:25:12;;;;;;;21.03;9.73;;;9.70;97.60;;;;;;6214069;23;20589;-77
2022/12/06 13:27:46;;;;;;;20.67;9.37;;;9.70;97.50;;;;;;6211620;23;20171;-77
2022/12/06 13:30:19;;;;;;;21.47;9.70;;;9.60;97.50;;;;;;6213196;23;20461;-77
2022/12/06 13:32:51;;;;;;;20.70;10.40;;;9.60;97.50;;;;;;6214460;23;20155;-77
2022/12/06 13:35:28;;;;;;;24.57;10.03;;;9.60;97.50;;;;;;6214009;23;20159;-77
2022/12/06 13:37:57;;;;;;;21.20;9.57;;;9.60;97.50;;;;;;6212790;23;20654;-78
2022/12/06 13:40:45;;;;;;;21.73;9.07;;;9.60;97.50;;;;;;6213986;23;20177;-79